sensor_id;sensor_type;location;lat;lon;timestamp;temperature;humidity
7204;DHT22;3643;52.460;13.322;2023-03-19T00:00:44;9.70;99.90
7204;DHT22;3643;52.460;13.322;2023-03-19T00:03:12;9.70;99.90
7204;DHT22;3643;52.460;13.322;2023-03-19T00:05:49;9.60;99.90
7204;DHT22;3643;52.460;13.322;2023-03-19T00:08:19;9.60;99.90
7204;DHT22;3643;52.460;13.322;2023-03-19T00:10:49;9.60;99.90
7204;DHT22;3643;52.460;13.322;2023-03-19T00:13:18;9.50;99.90
7204;DHT22;3643;52.460;13.322;2023-03-19T00:15:47;9.50;99.90
7204;DHT22;3643;52.460;13.322;2023-03-19T00:18:15;9.40;99.90
7204;DHT22;3643;52.460;13.322;2023-03-19T00:20:45;9.40;99.90
7204;DHT22;3643;52.460;13.322;2023-03-19T00:23:14;9.40;99.90
7204;DHT22;3643;52.460;13.322;2023-03-19T00:25:42;9.30;99.90
7204;DHT22;3643;52.460;13.322;2023-03-19T00:28:11;9.30;99.90
7204;DHT22;3643;52.460;13.322;2023-03-19T00:30:40;9.20;99.90
7204;DHT22;3643;52.460;13.322;2023-03-19T00:33:10;9.20;99.90
7204;DHT22;3643;52.460;13.322;2023-03-19T00:35:39;9.10;99.90
7204;DHT22;3643;52.460;13.322;2023-03-19T00:38:09;9.10;99.90
7204;DHT22;3643;52.460;13.322;2023-03-19T00:40:38;9.00;99.90
7204;DHT22;3643;52.460;13.322;2023-03-19T00:43:06;9.00;99.90
7204;DHT22;3643;52.460;13.322;2023-03-19T00:45:35;9.00;99.90
7204;DHT22;3643;52.460;13.322;2023-03-19T00:48:04;8.90;99.90
7204;DHT22;3643;52.460;13.322;2023-03-19T00:50:32;8.80;99.90
7204;DHT22;3643;52.460;13.322;2023-03-19T00:53:01;8.80;99.90
7204;DHT22;3643;52.460;13.322;2023-03-19T00:55:31;8.80;99.90
7204;DHT22;3643;52.460;13.322;2023-03-19T00:58:00;8.70;99.90
7204;DHT22;3643;52.460;13.322;2023-03-19T01:00:28;8.70;99.90
7204;DHT22;3643;52.460;13.322;2023-03-19T01:02:57;8.60;99.90
7204;DHT22;3643;52.460;13.322;2023-03-19T01:05:25;8.60;99.90
7204;DHT22;3643;52.460;13.322;2023-03-19T01:07:54;8.50;99.90
7204;DHT22;3643;52.460;13.322;2023-03-19T01:10:23;8.50;99.90
7204;DHT22;3643;52.460;13.322;2023-03-19T01:12:54;8.50;99.90
7204;DHT22;3643;52.460;13.322;2023-03-19T01:15:22;8.40;99.90
7204;DHT22;3643;52.460;13.322;2023-03-19T01:17:51;8.40;99.90
7204;DHT22;3643;52.460;13.322;2023-03-19T01:20:20;8.40;99.90
7204;DHT22;3643;52.460;13.322;2023-03-19T01:22:50;8.40;99.90
7204;DHT22;3643;52.460;13.322;2023-03-19T01:25:18;8.40;99.90
7204;DHT22;3643;52.460;13.322;2023-03-19T01:27:47;8.40;99.90
7204;DHT22;3643;52.460;13.322;2023-03-19T01:30:17;8.40;99.90
7204;DHT22;3643;52.460;13.322;2023-03-19T01:32:46;8.30;99.90
7204;DHT22;3643;52.460;13.322;2023-03-19T01:35:15;8.30;99.90
7204;DHT22;3643;52.460;13.322;2023-03-19T01:37:43;8.30;99.90
7204;DHT22;3643;52.460;13.322;2023-03-19T01:40:13;8.30;99.90
7204;DHT22;3643;52.460;13.322;2023-03-19T01:42:52;8.30;99.90
7204;DHT22;3643;52.460;13.322;2023-03-19T01:45:35;8.30;99.90
7204;DHT22;3643;52.460;13.322;2023-03-19T01:48:04;8.30;99.90
7204;DHT22;3643;52.460;13.322;2023-03-19T01:50:38;8.20;99.90
7204;DHT22;3643;52.460;13.322;2023-03-19T01:53:08;8.20;99.90
7204;DHT22;3643;52.460;13.322;2023-03-19T01:55:39;8.20;99.90
7204;DHT22;3643;52.460;13.322;2023-03-19T01:58:08;8.20;99.90
7204;DHT22;3643;52.460;13.322;2023-03-19T02:00:38;8.20;99.90
7204;DHT22;3643;52.460;13.322;2023-03-19T02:03:07;8.30;99.90
7204;DHT22;3643;52.460;13.322;2023-03-19T02:05:37;8.20;99.90
7204;DHT22;3643;52.460;13.322;2023-03-19T02:08:10;8.20;99.90
7204;DHT22;3643;52.460;13.322;2023-03-19T02:10:42;8.20;99.90
7204;DHT22;3643;52.460;13.322;2023-03-19T02:13:12;8.20;99.90
7204;DHT22;3643;52.460;13.322;2023-03-19T02:15:42;8.20;99.90
7204;DHT22;3643;52.460;13.322;2023-03-19T02:18:11;8.20;99.90
7204;DHT22;3643;52.460;13.322;2023-03-19T02:20:45;8.20;99.90
7204;DHT22;3643;52.460;13.322;2023-03-19T02:23:24;8.20;99.90
7204;DHT22;3643;52.460;13.322;2023-03-19T02:26:06;8.20;99.90
7204;DHT22;3643;52.460;13.322;2023-03-19T02:28:38;8.20;99.90
7204;DHT22;3643;52.460;13.322;2023-03-19T02:31:07;8.20;99.90
7204;DHT22;3643;52.460;13.322;2023-03-19T02:33:36;8.20;99.90
7204;DHT22;3643;52.460;13.322;2023-03-19T02:36:09;8.20;99.90
7204;DHT22;3643;52.460;13.322;2023-03-19T02:38:38;8.20;99.90
7204;DHT22;3643;52.460;13.322;2023-03-19T02:41:10;8.20;99.90
7204;DHT22;3643;52.460;13.322;2023-03-19T02:43:40;8.20;99.90
7204;DHT22;3643;52.460;13.322;2023-03-19T02:46:10;8.20;99.90
7204;DHT22;3643;52.460;13.322;2023-03-19T02:48:40;8.30;99.90
7204;DHT22;3643;52.460;13.322;2023-03-19T02:51:08;8.30;99.90
7204;DHT22;3643;52.460;13.322;2023-03-19T02:53:38;8.30;99.90
7204;DHT22;3643;52.460;13.322;2023-03-19T02:56:08;8.30;99.90
7204;DHT22;3643;52.460;13.322;2023-03-19T02:58:37;8.30;99.90
7204;DHT22;3643;52.460;13.322;2023-03-19T03:01:05;8.30;99.90
7204;DHT22;3643;52.460;13.322;2023-03-19T03:03:34;8.30;99.90
7204;DHT22;3643;52.460;13.322;2023-03-19T03:06:02;8.30;99.90
7204;DHT22;3643;52.460;13.322;2023-03-19T03:08:30;8.30;99.90
7204;DHT22;3643;52.460;13.322;2023-03-19T03:10:59;8.30;99.90
7204;DHT22;3643;52.460;13.322;2023-03-19T03:13:29;8.30;99.90
7204;DHT22;3643;52.460;13.322;2023-03-19T03:15:57;8.30;99.90
7204;DHT22;3643;52.460;13.322;2023-03-19T03:18:26;8.30;99.90
7204;DHT22;3643;52.460;13.322;2023-03-19T03:20:54;8.30;99.90
7204;DHT22;3643;52.460;13.322;2023-03-19T03:23:22;8.30;99.90
7204;DHT22;3643;52.460;13.322;2023-03-19T03:25:51;8.30;99.90
7204;DHT22;3643;52.460;13.322;2023-03-19T03:28:19;8.40;99.90
7204;DHT22;3643;52.460;13.322;2023-03-19T03:30:49;8.40;99.90
7204;DHT22;3643;52.460;13.322;2023-03-19T03:33:17;8.40;99.90
7204;DHT22;3643;52.460;13.322;2023-03-19T03:35:46;8.40;99.90
7204;DHT22;3643;52.460;13.322;2023-03-19T03:38:14;8.40;99.90
7204;DHT22;3643;52.460;13.322;2023-03-19T03:40:42;8.30;99.90
7204;DHT22;3643;52.460;13.322;2023-03-19T03:43:11;8.30;99.90
7204;DHT22;3643;52.460;13.322;2023-03-19T03:45:39;8.30;99.90
7204;DHT22;3643;52.460;13.322;2023-03-19T03:48:09;8.30;99.90
7204;DHT22;3643;52.460;13.322;2023-03-19T03:50:38;8.30;99.90
7204;DHT22;3643;52.460;13.322;2023-03-19T03:53:07;8.30;99.90
7204;DHT22;3643;52.460;13.322;2023-03-19T03:55:36;8.30;99.90
7204;DHT22;3643;52.460;13.322;2023-03-19T03:58:04;8.30;99.90
7204;DHT22;3643;52.460;13.322;2023-03-19T04:00:33;8.30;99.90
7204;DHT22;3643;52.460;13.322;2023-03-19T04:03:02;8.30;99.90
7204;DHT22;3643;52.460;13.322;2023-03-19T04:05:32;8.30;99.90
7204;DHT22;3643;52.460;13.322;2023-03-19T04:08:01;8.30;99.90
7204;DHT22;3643;52.460;13.322;2023-03-19T04:10:30;8.30;99.90
7204;DHT22;3643;52.460;13.322;2023-03-19T04:13:00;8.20;99.90
7204;DHT22;3643;52.460;13.322;2023-03-19T04:15:28;8.20;99.90
7204;DHT22;3643;52.460;13.322;2023-03-19T04:17:57;8.20;99.90
7204;DHT22;3643;52.460;13.322;2023-03-19T04:20:25;8.20;99.90
7204;DHT22;3643;52.460;13.322;2023-03-19T04:22:56;8.20;99.90
7204;DHT22;3643;52.460;13.322;2023-03-19T04:25:24;8.30;99.90
7204;DHT22;3643;52.460;13.322;2023-03-19T04:27:53;8.30;99.90
7204;DHT22;3643;52.460;13.322;2023-03-19T04:30:24;8.30;99.90
7204;DHT22;3643;52.460;13.322;2023-03-19T04:32:52;8.30;99.90
7204;DHT22;3643;52.460;13.322;2023-03-19T04:35:21;8.30;99.90
7204;DHT22;3643;52.460;13.322;2023-03-19T04:37:50;8.30;99.90
7204;DHT22;3643;52.460;13.322;2023-03-19T04:40:20;8.60;99.90
7204;DHT22;3643;52.460;13.322;2023-03-19T04:42:49;8.30;99.90
7204;DHT22;3643;52.460;13.322;2023-03-19T04:45:17;8.30;99.90
7204;DHT22;3643;52.460;13.322;2023-03-19T04:47:46;8.20;99.90
7204;DHT22;3643;52.460;13.322;2023-03-19T04:50:14;8.20;99.90
7204;DHT22;3643;52.460;13.322;2023-03-19T04:52:43;8.10;99.90
7204;DHT22;3643;52.460;13.322;2023-03-19T04:55:11;7.90;99.90
7204;DHT22;3643;52.460;13.322;2023-03-19T04:57:41;7.50;99.90
7204;DHT22;3643;52.460;13.322;2023-03-19T05:00:11;7.20;99.90
7204;DHT22;3643;52.460;13.322;2023-03-19T05:02:41;6.90;99.90
7204;DHT22;3643;52.460;13.322;2023-03-19T05:05:10;6.70;99.90
7204;DHT22;3643;52.460;13.322;2023-03-19T05:07:39;6.70;99.90
7204;DHT22;3643;52.460;13.322;2023-03-19T05:10:09;6.80;99.90
7204;DHT22;3643;52.460;13.322;2023-03-19T05:12:37;6.90;99.90
7204;DHT22;3643;52.460;13.322;2023-03-19T05:15:08;6.90;99.90
7204;DHT22;3643;52.460;13.322;2023-03-19T05:17:36;7.00;99.90
7204;DHT22;3643;52.460;13.322;2023-03-19T05:20:05;7.10;99.90
7204;DHT22;3643;52.460;13.322;2023-03-19T05:22:33;7.20;99.90
7204;DHT22;3643;52.460;13.322;2023-03-19T05:25:01;7.30;99.90
7204;DHT22;3643;52.460;13.322;2023-03-19T05:27:29;7.40;99.90
7204;DHT22;3643;52.460;13.322;2023-03-19T05:29:57;7.50;99.90
7204;DHT22;3643;52.460;13.322;2023-03-19T05:32:28;7.70;99.90
7204;DHT22;3643;52.460;13.322;2023-03-19T05:34:56;7.80;99.90
7204;DHT22;3643;52.460;13.322;2023-03-19T05:37:25;7.90;99.90
7204;DHT22;3643;52.460;13.322;2023-03-19T05:39:53;8.00;99.90
7204;DHT22;3643;52.460;13.322;2023-03-19T05:42:21;8.00;99.90
7204;DHT22;3643;52.460;13.322;2023-03-19T05:44:49;8.10;99.90
7204;DHT22;3643;52.460;13.322;2023-03-19T05:47:17;8.30;99.90
7204;DHT22;3643;52.460;13.322;2023-03-19T05:49:47;8.20;99.90
7204;DHT22;3643;52.460;13.322;2023-03-19T05:52:15;8.20;99.90
7204;DHT22;3643;52.460;13.322;2023-03-19T05:54:43;8.20;99.90
7204;DHT22;3643;52.460;13.322;2023-03-19T05:57:15;8.10;99.90
7204;DHT22;3643;52.460;13.322;2023-03-19T05:59:43;7.90;99.90
7204;DHT22;3643;52.460;13.322;2023-03-19T06:02:11;7.90;99.90
7204;DHT22;3643;52.460;13.322;2023-03-19T06:04:39;7.80;99.90
7204;DHT22;3643;52.460;13.322;2023-03-19T06:07:09;7.60;99.90
7204;DHT22;3643;52.460;13.322;2023-03-19T06:09:37;7.60;99.90
7204;DHT22;3643;52.460;13.322;2023-03-19T06:12:07;7.90;99.90
7204;DHT22;3643;52.460;13.322;2023-03-19T06:14:35;7.70;99.90
7204;DHT22;3643;52.460;13.322;2023-03-19T06:17:03;7.80;99.90
7204;DHT22;3643;52.460;13.322;2023-03-19T06:19:31;8.10;99.90
7204;DHT22;3643;52.460;13.322;2023-03-19T06:21:59;8.50;99.90
7204;DHT22;3643;52.460;13.322;2023-03-19T06:24:29;8.80;99.90
7204;DHT22;3643;52.460;13.322;2023-03-19T06:26:57;8.60;99.90
7204;DHT22;3643;52.460;13.322;2023-03-19T06:29:25;8.20;99.90
7204;DHT22;3643;52.460;13.322;2023-03-19T06:31:54;8.20;99.90
7204;DHT22;3643;52.460;13.322;2023-03-19T06:34:24;8.40;99.90
7204;DHT22;3643;52.460;13.322;2023-03-19T06:36:52;8.70;99.90
7204;DHT22;3643;52.460;13.322;2023-03-19T06:39:20;9.00;99.90
7204;DHT22;3643;52.460;13.322;2023-03-19T06:41:49;9.00;99.90
7204;DHT22;3643;52.460;13.322;2023-03-19T06:44:18;8.90;99.90
7204;DHT22;3643;52.460;13.322;2023-03-19T06:46:46;9.00;99.90
7204;DHT22;3643;52.460;13.322;2023-03-19T06:49:14;9.00;99.90
7204;DHT22;3643;52.460;13.322;2023-03-19T06:51:42;8.90;99.90
7204;DHT22;3643;52.460;13.322;2023-03-19T06:54:10;8.70;99.90
7204;DHT22;3643;52.460;13.322;2023-03-19T06:56:38;8.70;99.90
7204;DHT22;3643;52.460;13.322;2023-03-19T06:59:08;8.70;99.90
7204;DHT22;3643;52.460;13.322;2023-03-19T07:01:39;8.80;99.90
7204;DHT22;3643;52.460;13.322;2023-03-19T07:04:08;8.70;99.90
7204;DHT22;3643;52.460;13.322;2023-03-19T07:06:36;8.60;99.90
7204;DHT22;3643;52.460;13.322;2023-03-19T07:09:04;8.40;99.90
7204;DHT22;3643;52.460;13.322;2023-03-19T07:11:33;8.40;99.90
7204;DHT22;3643;52.460;13.322;2023-03-19T07:14:02;8.50;99.90
7204;DHT22;3643;52.460;13.322;2023-03-19T07:16:31;8.50;99.90
7204;DHT22;3643;52.460;13.322;2023-03-19T07:19:00;8.40;99.90
7204;DHT22;3643;52.460;13.322;2023-03-19T07:21:28;8.00;99.90
7204;DHT22;3643;52.460;13.322;2023-03-19T07:23:56;8.00;99.90
7204;DHT22;3643;52.460;13.322;2023-03-19T07:26:24;8.10;99.90
7204;DHT22;3643;52.460;13.322;2023-03-19T07:28:53;8.10;99.90
7204;DHT22;3643;52.460;13.322;2023-03-19T07:31:21;8.10;99.90
7204;DHT22;3643;52.460;13.322;2023-03-19T07:33:51;8.00;99.90
7204;DHT22;3643;52.460;13.322;2023-03-19T07:36:19;8.00;99.90
7204;DHT22;3643;52.460;13.322;2023-03-19T07:38:49;8.20;99.90
7204;DHT22;3643;52.460;13.322;2023-03-19T07:41:17;8.40;99.90
7204;DHT22;3643;52.460;13.322;2023-03-19T07:43:45;9.00;99.90
7204;DHT22;3643;52.460;13.322;2023-03-19T07:46:14;9.60;99.90
7204;DHT22;3643;52.460;13.322;2023-03-19T07:48:43;9.90;99.90
7204;DHT22;3643;52.460;13.322;2023-03-19T07:51:13;9.50;99.90
7204;DHT22;3643;52.460;13.322;2023-03-19T07:53:42;9.60;99.90
7204;DHT22;3643;52.460;13.322;2023-03-19T07:56:10;9.60;99.90
7204;DHT22;3643;52.460;13.322;2023-03-19T07:58:38;9.40;99.90
7204;DHT22;3643;52.460;13.322;2023-03-19T08:01:07;9.30;99.90
7204;DHT22;3643;52.460;13.322;2023-03-19T08:03:35;9.10;99.90
7204;DHT22;3643;52.460;13.322;2023-03-19T08:06:04;9.00;99.90
7204;DHT22;3643;52.460;13.322;2023-03-19T08:08:34;9.10;99.90
7204;DHT22;3643;52.460;13.322;2023-03-19T08:11:02;9.30;99.90
7204;DHT22;3643;52.460;13.322;2023-03-19T08:13:30;9.30;99.90
7204;DHT22;3643;52.460;13.322;2023-03-19T08:15:58;9.50;99.90
7204;DHT22;3643;52.460;13.322;2023-03-19T08:18:27;9.60;99.90
7204;DHT22;3643;52.460;13.322;2023-03-19T08:20:55;9.80;99.90
7204;DHT22;3643;52.460;13.322;2023-03-19T08:23:23;10.00;99.90
7204;DHT22;3643;52.460;13.322;2023-03-19T08:25:54;10.00;99.90
7204;DHT22;3643;52.460;13.322;2023-03-19T08:28:22;9.80;99.90
7204;DHT22;3643;52.460;13.322;2023-03-19T08:30:51;9.50;99.90
7204;DHT22;3643;52.460;13.322;2023-03-19T08:33:19;9.20;99.90
7204;DHT22;3643;52.460;13.322;2023-03-19T08:35:47;9.00;99.90
7204;DHT22;3643;52.460;13.322;2023-03-19T08:38:16;8.80;99.90
7204;DHT22;3643;52.460;13.322;2023-03-19T08:40:46;8.70;99.90
7204;DHT22;3643;52.460;13.322;2023-03-19T08:43:16;8.70;99.90
7204;DHT22;3643;52.460;13.322;2023-03-19T08:45:44;8.50;99.90
7204;DHT22;3643;52.460;13.322;2023-03-19T08:48:20;8.50;99.90
7204;DHT22;3643;52.460;13.322;2023-03-19T08:50:52;8.40;99.90
7204;DHT22;3643;52.460;13.322;2023-03-19T08:53:20;8.40;99.90
7204;DHT22;3643;52.460;13.322;2023-03-19T08:55:52;8.40;99.90
7204;DHT22;3643;52.460;13.322;2023-03-19T08:58:23;8.40;99.90
7204;DHT22;3643;52.460;13.322;2023-03-19T09:00:52;8.30;99.90
7204;DHT22;3643;52.460;13.322;2023-03-19T09:03:20;8.30;99.90
7204;DHT22;3643;52.460;13.322;2023-03-19T09:05:48;8.50;99.90
7204;DHT22;3643;52.460;13.322;2023-03-19T09:08:16;8.30;99.90
7204;DHT22;3643;52.460;13.322;2023-03-19T09:10:44;8.40;99.90
7204;DHT22;3643;52.460;13.322;2023-03-19T09:13:12;8.50;99.90
7204;DHT22;3643;52.460;13.322;2023-03-19T09:15:42;8.60;99.90
7204;DHT22;3643;52.460;13.322;2023-03-19T09:18:10;8.70;99.90
7204;DHT22;3643;52.460;13.322;2023-03-19T09:20:38;8.70;99.90
7204;DHT22;3643;52.460;13.322;2023-03-19T09:23:06;8.80;99.90
7204;DHT22;3643;52.460;13.322;2023-03-19T09:25:35;8.80;99.90
7204;DHT22;3643;52.460;13.322;2023-03-19T09:28:03;8.90;99.90
7204;DHT22;3643;52.460;13.322;2023-03-19T09:30:31;8.90;99.90
7204;DHT22;3643;52.460;13.322;2023-03-19T09:33:02;9.00;99.90
7204;DHT22;3643;52.460;13.322;2023-03-19T09:35:30;9.10;99.90
7204;DHT22;3643;52.460;13.322;2023-03-19T09:38:00;9.30;99.90
7204;DHT22;3643;52.460;13.322;2023-03-19T09:40:34;9.50;99.90
7204;DHT22;3643;52.460;13.322;2023-03-19T09:43:15;9.60;99.90
7204;DHT22;3643;52.460;13.322;2023-03-19T09:45:48;9.70;99.90
7204;DHT22;3643;52.460;13.322;2023-03-19T09:48:25;9.80;99.90
7204;DHT22;3643;52.460;13.322;2023-03-19T09:50:59;9.90;99.90
7204;DHT22;3643;52.460;13.322;2023-03-19T09:53:37;10.00;99.90
7204;DHT22;3643;52.460;13.322;2023-03-19T09:56:08;10.10;99.90
7204;DHT22;3643;52.460;13.322;2023-03-19T09:58:39;10.20;99.90
7204;DHT22;3643;52.460;13.322;2023-03-19T10:01:19;10.30;99.90
7204;DHT22;3643;52.460;13.322;2023-03-19T10:04:06;10.40;99.90
7204;DHT22;3643;52.460;13.322;2023-03-19T10:06:38;10.60;99.90
7204;DHT22;3643;52.460;13.322;2023-03-19T10:09:26;10.70;99.90
7204;DHT22;3643;52.460;13.322;2023-03-19T10:12:03;10.70;99.90
7204;DHT22;3643;52.460;13.322;2023-03-19T10:14:47;10.90;99.90
7204;DHT22;3643;52.460;13.322;2023-03-19T10:17:24;11.00;99.90
7204;DHT22;3643;52.460;13.322;2023-03-19T10:19:58;11.20;99.90
7204;DHT22;3643;52.460;13.322;2023-03-19T10:22:31;11.30;99.90
7204;DHT22;3643;52.460;13.322;2023-03-19T10:25:01;11.10;99.90
7204;DHT22;3643;52.460;13.322;2023-03-19T10:27:29;11.10;99.90
7204;DHT22;3643;52.460;13.322;2023-03-19T10:29:57;11.20;99.90
7204;DHT22;3643;52.460;13.322;2023-03-19T10:32:32;11.30;99.90
7204;DHT22;3643;52.460;13.322;2023-03-19T10:35:08;11.40;99.90
7204;DHT22;3643;52.460;13.322;2023-03-19T10:37:39;11.50;99.90
7204;DHT22;3643;52.460;13.322;2023-03-19T10:40:16;11.70;99.90
7204;DHT22;3643;52.460;13.322;2023-03-19T10:42:56;11.80;99.90
7204;DHT22;3643;52.460;13.322;2023-03-19T10:45:31;12.00;99.90
7204;DHT22;3643;52.460;13.322;2023-03-19T10:48:01;12.10;99.90
7204;DHT22;3643;52.460;13.322;2023-03-19T10:50:34;12.10;99.90
7204;DHT22;3643;52.460;13.322;2023-03-19T10:53:06;12.30;99.90
7204;DHT22;3643;52.460;13.322;2023-03-19T10:55:34;12.20;99.90
7204;DHT22;3643;52.460;13.322;2023-03-19T10:58:05;12.10;99.90
7204;DHT22;3643;52.460;13.322;2023-03-19T11:00:34;12.30;99.90
7204;DHT22;3643;52.460;13.322;2023-03-19T11:03:02;12.40;99.90
7204;DHT22;3643;52.460;13.322;2023-03-19T11:05:33;12.60;99.90
7204;DHT22;3643;52.460;13.322;2023-03-19T11:08:03;12.80;99.90
7204;DHT22;3643;52.460;13.322;2023-03-19T11:10:34;13.10;99.90
7204;DHT22;3643;52.460;13.322;2023-03-19T11:13:04;13.30;99.90
7204;DHT22;3643;52.460;13.322;2023-03-19T11:15:34;13.50;99.90
7204;DHT22;3643;52.460;13.322;2023-03-19T11:18:14;13.30;99.90
7204;DHT22;3643;52.460;13.322;2023-03-19T11:20:48;13.10;99.90
7204;DHT22;3643;52.460;13.322;2023-03-19T11:23:17;12.80;99.90
7204;DHT22;3643;52.460;13.322;2023-03-19T11:25:49;12.90;99.90
7204;DHT22;3643;52.460;13.322;2023-03-19T11:28:19;13.00;99.90
7204;DHT22;3643;52.460;13.322;2023-03-19T11:30:57;13.10;99.90
7204;DHT22;3643;52.460;13.322;2023-03-19T11:33:49;13.20;99.90
7204;DHT22;3643;52.460;13.322;2023-03-19T11:36:25;13.30;99.90
7204;DHT22;3643;52.460;13.322;2023-03-19T11:39:06;12.90;99.90
7204;DHT22;3643;52.460;13.322;2023-03-19T11:41:48;12.60;99.90
7204;DHT22;3643;52.460;13.322;2023-03-19T11:44:23;12.40;99.90
7204;DHT22;3643;52.460;13.322;2023-03-19T11:46:56;12.40;99.90
7204;DHT22;3643;52.460;13.322;2023-03-19T11:49:53;12.70;99.90
7204;DHT22;3643;52.460;13.322;2023-03-19T11:52:31;12.90;99.90
7204;DHT22;3643;52.460;13.322;2023-03-19T11:55:13;12.60;99.90
7204;DHT22;3643;52.460;13.322;2023-03-19T11:58:11;12.60;99.90
7204;DHT22;3643;52.460;13.322;2023-03-19T12:00:46;13.00;99.90
7204;DHT22;3643;52.460;13.322;2023-03-19T12:03:48;12.80;99.90
7204;DHT22;3643;52.460;13.322;2023-03-19T12:06:30;13.00;99.90
7204;DHT22;3643;52.460;13.322;2023-03-19T12:09:10;13.10;99.90
7204;DHT22;3643;52.460;13.322;2023-03-19T12:11:46;13.40;99.90
7204;DHT22;3643;52.460;13.322;2023-03-19T12:14:34;13.50;99.90
7204;DHT22;3643;52.460;13.322;2023-03-19T12:17:19;13.30;99.90
7204;DHT22;3643;52.460;13.322;2023-03-19T12:20:13;13.00;99.90
7204;DHT22;3643;52.460;13.322;2023-03-19T12:22:58;13.00;99.90
7204;DHT22;3643;52.460;13.322;2023-03-19T12:25:44;13.30;99.90
7204;DHT22;3643;52.460;13.322;2023-03-19T12:28:18;13.60;99.90
7204;DHT22;3643;52.460;13.322;2023-03-19T12:31:04;13.80;99.90
7204;DHT22;3643;52.460;13.322;2023-03-19T12:33:41;14.00;99.90
7204;DHT22;3643;52.460;13.322;2023-03-19T12:36:15;14.20;99.90
7204;DHT22;3643;52.460;13.322;2023-03-19T12:38:48;14.30;99.90
7204;DHT22;3643;52.460;13.322;2023-03-19T12:41:22;14.40;99.90
7204;DHT22;3643;52.460;13.322;2023-03-19T12:43:54;14.50;99.90
7204;DHT22;3643;52.460;13.322;2023-03-19T12:46:27;14.50;99.90
7204;DHT22;3643;52.460;13.322;2023-03-19T12:49:02;14.50;99.90
7204;DHT22;3643;52.460;13.322;2023-03-19T12:51:35;14.60;99.90
7204;DHT22;3643;52.460;13.322;2023-03-19T12:54:09;14.60;99.90
7204;DHT22;3643;52.460;13.322;2023-03-19T12:56:45;14.70;99.90
7204;DHT22;3643;52.460;13.322;2023-03-19T12:59:22;14.90;99.90
7204;DHT22;3643;52.460;13.322;2023-03-19T13:01:57;14.90;99.90
7204;DHT22;3643;52.460;13.322;2023-03-19T13:04:29;14.80;99.90
7204;DHT22;3643;52.460;13.322;2023-03-19T13:07:00;14.90;99.90
7204;DHT22;3643;52.460;13.322;2023-03-19T13:09:35;14.90;99.90
7204;DHT22;3643;52.460;13.322;2023-03-19T13:12:10;14.80;99.90
7204;DHT22;3643;52.460;13.322;2023-03-19T13:14:48;14.60;99.90
7204;DHT22;3643;52.460;13.322;2023-03-19T13:17:23;14.80;99.90
7204;DHT22;3643;52.460;13.322;2023-03-19T13:19:54;15.00;99.90
7204;DHT22;3643;52.460;13.322;2023-03-19T13:22:24;14.80;99.90
7204;DHT22;3643;52.460;13.322;2023-03-19T13:24:54;14.70;99.90
7204;DHT22;3643;52.460;13.322;2023-03-19T13:27:28;14.70;99.90
7204;DHT22;3643;52.460;13.322;2023-03-19T13:30:06;14.80;99.90
7204;DHT22;3643;52.460;13.322;2023-03-19T13:32:45;14.80;99.90
7204;DHT22;3643;52.460;13.322;2023-03-19T13:35:34;14.90;99.90
7204;DHT22;3643;52.460;13.322;2023-03-19T13:38:14;15.00;99.90
7204;DHT22;3643;52.460;13.322;2023-03-19T13:40:46;15.20;99.90
7204;DHT22;3643;52.460;13.322;2023-03-19T13:49:30;15.60;99.90
7204;DHT22;3643;52.460;13.322;2023-03-19T13:52:02;15.70;99.90
7204;DHT22;3643;52.460;13.322;2023-03-19T13:54:52;15.80;99.90
7204;DHT22;3643;52.460;13.322;2023-03-19T13:57:33;15.90;99.90
7204;DHT22;3643;52.460;13.322;2023-03-19T14:03:18;15.70;99.90
7204;DHT22;3643;52.460;13.322;2023-03-19T14:05:50;15.60;99.90
7204;DHT22;3643;52.460;13.322;2023-03-19T14:08:21;15.60;99.90
7204;DHT22;3643;52.460;13.322;2023-03-19T14:10:52;15.70;99.90
7204;DHT22;3643;52.460;13.322;2023-03-19T14:13:28;15.70;99.90
7204;DHT22;3643;52.460;13.322;2023-03-19T14:16:08;15.70;99.90
7204;DHT22;3643;52.460;13.322;2023-03-19T14:18:42;15.80;99.90
7204;DHT22;3643;52.460;13.322;2023-03-19T14:21:15;16.00;99.90
7204;DHT22;3643;52.460;13.322;2023-03-19T14:23:52;16.10;99.90
7204;DHT22;3643;52.460;13.322;2023-03-19T14:26:22;15.80;99.90
7204;DHT22;3643;52.460;13.322;2023-03-19T14:28:55;16.30;99.90
7204;DHT22;3643;52.460;13.322;2023-03-19T14:31:42;16.40;99.90
7204;DHT22;3643;52.460;13.322;2023-03-19T14:34:20;16.70;99.90
7204;DHT22;3643;52.460;13.322;2023-03-19T14:36:55;16.80;99.90
7204;DHT22;3643;52.460;13.322;2023-03-19T14:39:26;16.80;99.90
7204;DHT22;3643;52.460;13.322;2023-03-19T14:42:00;16.60;99.90
7204;DHT22;3643;52.460;13.322;2023-03-19T14:45:06;16.40;99.90
7204;DHT22;3643;52.460;13.322;2023-03-19T14:47:50;16.40;99.90
7204;DHT22;3643;52.460;13.322;2023-03-19T14:53:34;16.60;99.90
7204;DHT22;3643;52.460;13.322;2023-03-19T14:56:12;16.70;99.90
7204;DHT22;3643;52.460;13.322;2023-03-19T14:58:51;16.80;99.90
7204;DHT22;3643;52.460;13.322;2023-03-19T15:01:21;16.90;99.90
7204;DHT22;3643;52.460;13.322;2023-03-19T15:03:55;16.90;99.90
7204;DHT22;3643;52.460;13.322;2023-03-19T15:06:24;17.00;99.90
7204;DHT22;3643;52.460;13.322;2023-03-19T15:08:58;16.90;99.90
7204;DHT22;3643;52.460;13.322;2023-03-19T15:11:41;16.80;99.90
7204;DHT22;3643;52.460;13.322;2023-03-19T15:14:36;16.70;99.90
7204;DHT22;3643;52.460;13.322;2023-03-19T15:17:16;16.50;99.90
7204;DHT22;3643;52.460;13.322;2023-03-19T15:19:48;16.40;99.90
7204;DHT22;3643;52.460;13.322;2023-03-19T15:22:20;16.40;99.90
7204;DHT22;3643;52.460;13.322;2023-03-19T15:24:50;16.30;99.90
7204;DHT22;3643;52.460;13.322;2023-03-19T15:27:20;16.20;99.90
7204;DHT22;3643;52.460;13.322;2023-03-19T15:29:50;16.20;99.90
7204;DHT22;3643;52.460;13.322;2023-03-19T15:32:33;16.20;99.90
7204;DHT22;3643;52.460;13.322;2023-03-19T15:35:24;16.10;99.90
7204;DHT22;3643;52.460;13.322;2023-03-19T15:37:58;16.10;99.90
7204;DHT22;3643;52.460;13.322;2023-03-19T15:40:30;16.10;99.90
7204;DHT22;3643;52.460;13.322;2023-03-19T15:43:00;16.10;99.90
7204;DHT22;3643;52.460;13.322;2023-03-19T15:45:30;16.30;99.90
7204;DHT22;3643;52.460;13.322;2023-03-19T15:48:02;16.40;99.90
7204;DHT22;3643;52.460;13.322;2023-03-19T15:50:34;16.40;99.90
7204;DHT22;3643;52.460;13.322;2023-03-19T15:53:06;16.50;99.90
7204;DHT22;3643;52.460;13.322;2023-03-19T15:55:37;16.60;99.90
7204;DHT22;3643;52.460;13.322;2023-03-19T15:58:09;16.50;99.90
7204;DHT22;3643;52.460;13.322;2023-03-19T16:00:39;16.40;99.90
7204;DHT22;3643;52.460;13.322;2023-03-19T16:03:15;16.30;99.90
7204;DHT22;3643;52.460;13.322;2023-03-19T16:05:43;16.20;99.90
7204;DHT22;3643;52.460;13.322;2023-03-19T16:08:17;16.20;99.90
7204;DHT22;3643;52.460;13.322;2023-03-19T16:10:48;16.20;99.90
7204;DHT22;3643;52.460;13.322;2023-03-19T16:13:28;16.10;99.90
7204;DHT22;3643;52.460;13.322;2023-03-19T16:16:03;16.10;99.90
7204;DHT22;3643;52.460;13.322;2023-03-19T16:18:40;16.20;99.90
7204;DHT22;3643;52.460;13.322;2023-03-19T16:21:13;16.20;99.90
7204;DHT22;3643;52.460;13.322;2023-03-19T16:23:44;16.20;99.90
7204;DHT22;3643;52.460;13.322;2023-03-19T16:26:20;16.20;99.90
7204;DHT22;3643;52.460;13.322;2023-03-19T16:28:57;16.10;99.90
7204;DHT22;3643;52.460;13.322;2023-03-19T16:31:27;16.10;99.90
7204;DHT22;3643;52.460;13.322;2023-03-19T16:33:58;15.90;99.90
7204;DHT22;3643;52.460;13.322;2023-03-19T16:36:27;15.90;99.90